sensor_id;sensor_type;location;lat;lon;timestamp;temperature;humidity
52769;DHT22;40471;44.534;18.644;2024-03-29T00:02:09;15.60;99.90
52769;DHT22;40471;44.534;18.644;2024-03-29T00:04:35;15.50;99.90
52769;DHT22;40471;44.534;18.644;2024-03-29T00:07:01;15.20;99.90
52769;DHT22;40471;44.534;18.644;2024-03-29T00:09:26;15.20;99.90
52769;DHT22;40471;44.534;18.644;2024-03-29T00:11:52;15.10;99.90
52769;DHT22;40471;44.534;18.644;2024-03-29T00:14:18;14.90;99.90
52769;DHT22;40471;44.534;18.644;2024-03-29T00:16:44;14.80;99.90
52769;DHT22;40471;44.534;18.644;2024-03-29T00:19:10;14.90;99.90
52769;DHT22;40471;44.534;18.644;2024-03-29T00:21:36;15.00;99.90
52769;DHT22;40471;44.534;18.644;2024-03-29T00:24:02;15.20;99.90
52769;DHT22;40471;44.534;18.644;2024-03-29T00:26:28;15.30;99.90
52769;DHT22;40471;44.534;18.644;2024-03-29T00:28:54;15.40;99.90
52769;DHT22;40471;44.534;18.644;2024-03-29T00:31:20;15.50;99.90
52769;DHT22;40471;44.534;18.644;2024-03-29T00:33:46;15.70;99.90
52769;DHT22;40471;44.534;18.644;2024-03-29T00:36:12;15.90;99.90
52769;DHT22;40471;44.534;18.644;2024-03-29T00:38:38;15.90;99.90
52769;DHT22;40471;44.534;18.644;2024-03-29T00:41:04;16.00;99.90
52769;DHT22;40471;44.534;18.644;2024-03-29T00:43:29;16.20;99.90
52769;DHT22;40471;44.534;18.644;2024-03-29T00:45:55;16.20;99.90
52769;DHT22;40471;44.534;18.644;2024-03-29T00:48:21;16.20;99.40
52769;DHT22;40471;44.534;18.644;2024-03-29T00:50:48;16.20;99.90
52769;DHT22;40471;44.534;18.644;2024-03-29T00:53:13;16.10;99.90
52769;DHT22;40471;44.534;18.644;2024-03-29T00:55:39;15.80;99.90
52769;DHT22;40471;44.534;18.644;2024-03-29T00:58:05;15.60;99.90
52769;DHT22;40471;44.534;18.644;2024-03-29T01:00:31;15.40;99.90
52769;DHT22;40471;44.534;18.644;2024-03-29T01:02:56;15.40;99.90
52769;DHT22;40471;44.534;18.644;2024-03-29T01:05:23;15.40;99.90
52769;DHT22;40471;44.534;18.644;2024-03-29T01:07:52;15.40;99.90
52769;DHT22;40471;44.534;18.644;2024-03-29T01:10:17;15.50;99.90
52769;DHT22;40471;44.534;18.644;2024-03-29T01:12:43;15.50;99.90
52769;DHT22;40471;44.534;18.644;2024-03-29T01:15:11;15.60;99.90
52769;DHT22;40471;44.534;18.644;2024-03-29T01:17:37;15.80;99.90
52769;DHT22;40471;44.534;18.644;2024-03-29T01:20:03;15.90;99.90
52769;DHT22;40471;44.534;18.644;2024-03-29T01:22:29;16.10;99.90
52769;DHT22;40471;44.534;18.644;2024-03-29T01:24:55;16.20;99.90
52769;DHT22;40471;44.534;18.644;2024-03-29T01:27:21;16.40;99.90
52769;DHT22;40471;44.534;18.644;2024-03-29T01:29:47;16.40;99.90
52769;DHT22;40471;44.534;18.644;2024-03-29T01:32:13;16.30;99.90
52769;DHT22;40471;44.534;18.644;2024-03-29T01:34:38;16.20;99.90
52769;DHT22;40471;44.534;18.644;2024-03-29T01:37:04;16.10;99.90
52769;DHT22;40471;44.534;18.644;2024-03-29T01:39:30;16.10;99.90
52769;DHT22;40471;44.534;18.644;2024-03-29T01:41:57;15.90;99.90
52769;DHT22;40471;44.534;18.644;2024-03-29T01:44:25;15.90;99.90
52769;DHT22;40471;44.534;18.644;2024-03-29T01:46:50;15.80;99.90
52769;DHT22;40471;44.534;18.644;2024-03-29T01:49:16;15.70;99.90
52769;DHT22;40471;44.534;18.644;2024-03-29T01:51:43;15.60;99.90
52769;DHT22;40471;44.534;18.644;2024-03-29T01:54:10;15.60;99.90
52769;DHT22;40471;44.534;18.644;2024-03-29T01:56:37;15.60;99.90
52769;DHT22;40471;44.534;18.644;2024-03-29T01:59:05;15.70;99.90
52769;DHT22;40471;44.534;18.644;2024-03-29T02:01:34;15.70;99.90
52769;DHT22;40471;44.534;18.644;2024-03-29T02:03:59;15.80;99.90
52769;DHT22;40471;44.534;18.644;2024-03-29T02:06:26;15.90;99.90
52769;DHT22;40471;44.534;18.644;2024-03-29T02:08:53;16.00;99.90
52769;DHT22;40471;44.534;18.644;2024-03-29T02:11:19;16.10;99.90
52769;DHT22;40471;44.534;18.644;2024-03-29T02:13:46;16.10;99.90
52769;DHT22;40471;44.534;18.644;2024-03-29T02:16:12;16.20;99.90
52769;DHT22;40471;44.534;18.644;2024-03-29T02:18:38;16.30;99.90
52769;DHT22;40471;44.534;18.644;2024-03-29T02:21:04;16.30;99.90
52769;DHT22;40471;44.534;18.644;2024-03-29T02:23:32;16.40;99.90
52769;DHT22;40471;44.534;18.644;2024-03-29T02:26:01;16.50;99.90
52769;DHT22;40471;44.534;18.644;2024-03-29T02:28:27;16.60;99.90
52769;DHT22;40471;44.534;18.644;2024-03-29T02:30:53;16.70;99.90
52769;DHT22;40471;44.534;18.644;2024-03-29T02:33:21;16.70;99.90
52769;DHT22;40471;44.534;18.644;2024-03-29T02:35:48;16.80;99.90
52769;DHT22;40471;44.534;18.644;2024-03-29T02:38:14;16.80;99.90
52769;DHT22;40471;44.534;18.644;2024-03-29T02:40:40;16.90;99.90
52769;DHT22;40471;44.534;18.644;2024-03-29T02:43:05;16.90;99.90
52769;DHT22;40471;44.534;18.644;2024-03-29T02:45:33;16.80;99.90
52769;DHT22;40471;44.534;18.644;2024-03-29T02:47:59;16.70;99.90
52769;DHT22;40471;44.534;18.644;2024-03-29T02:50:24;16.60;99.90
52769;DHT22;40471;44.534;18.644;2024-03-29T02:52:50;16.60;99.90
52769;DHT22;40471;44.534;18.644;2024-03-29T02:55:16;16.50;99.90
52769;DHT22;40471;44.534;18.644;2024-03-29T02:57:42;16.60;99.90
52769;DHT22;40471;44.534;18.644;2024-03-29T03:00:08;16.60;99.90
52769;DHT22;40471;44.534;18.644;2024-03-29T03:02:41;16.60;99.90
52769;DHT22;40471;44.534;18.644;2024-03-29T03:05:07;16.50;99.90
52769;DHT22;40471;44.534;18.644;2024-03-29T03:07:34;16.50;99.90
52769;DHT22;40471;44.534;18.644;2024-03-29T03:10:18;16.40;99.90
52769;DHT22;40471;44.534;18.644;2024-03-29T03:13:03;16.30;99.90
52769;DHT22;40471;44.534;18.644;2024-03-29T03:15:29;16.10;99.90
52769;DHT22;40471;44.534;18.644;2024-03-29T03:17:55;16.00;99.90
52769;DHT22;40471;44.534;18.644;2024-03-29T03:20:20;15.80;99.90
52769;DHT22;40471;44.534;18.644;2024-03-29T03:22:50;15.70;99.90
52769;DHT22;40471;44.534;18.644;2024-03-29T03:25:16;15.60;99.90
52769;DHT22;40471;44.534;18.644;2024-03-29T03:27:42;15.50;99.90
52769;DHT22;40471;44.534;18.644;2024-03-29T03:30:08;15.50;99.90
52769;DHT22;40471;44.534;18.644;2024-03-29T03:32:34;15.40;99.90
52769;DHT22;40471;44.534;18.644;2024-03-29T03:35:00;15.30;99.90
52769;DHT22;40471;44.534;18.644;2024-03-29T03:37:25;15.20;99.90
52769;DHT22;40471;44.534;18.644;2024-03-29T03:39:53;15.00;99.90
52769;DHT22;40471;44.534;18.644;2024-03-29T03:42:18;14.90;99.90
52769;DHT22;40471;44.534;18.644;2024-03-29T03:44:44;14.80;99.90
52769;DHT22;40471;44.534;18.644;2024-03-29T03:47:10;14.70;99.90
52769;DHT22;40471;44.534;18.644;2024-03-29T03:49:36;14.60;99.90
52769;DHT22;40471;44.534;18.644;2024-03-29T03:52:01;14.50;99.90
52769;DHT22;40471;44.534;18.644;2024-03-29T03:54:28;14.50;99.90
52769;DHT22;40471;44.534;18.644;2024-03-29T03:56:54;14.50;99.90
52769;DHT22;40471;44.534;18.644;2024-03-29T03:59:20;14.40;99.90
52769;DHT22;40471;44.534;18.644;2024-03-29T04:01:46;14.20;99.90
52769;DHT22;40471;44.534;18.644;2024-03-29T04:04:12;14.20;99.90
52769;DHT22;40471;44.534;18.644;2024-03-29T04:06:37;14.20;99.90
52769;DHT22;40471;44.534;18.644;2024-03-29T04:09:03;14.10;99.90
52769;DHT22;40471;44.534;18.644;2024-03-29T04:11:29;14.10;99.90
52769;DHT22;40471;44.534;18.644;2024-03-29T04:13:55;13.90;99.90
52769;DHT22;40471;44.534;18.644;2024-03-29T04:16:21;13.90;99.90
52769;DHT22;40471;44.534;18.644;2024-03-29T04:18:47;13.80;99.90
52769;DHT22;40471;44.534;18.644;2024-03-29T04:21:13;13.70;99.90
52769;DHT22;40471;44.534;18.644;2024-03-29T04:23:39;13.60;99.90
52769;DHT22;40471;44.534;18.644;2024-03-29T04:26:04;13.60;99.90
52769;DHT22;40471;44.534;18.644;2024-03-29T04:28:30;13.70;99.90
52769;DHT22;40471;44.534;18.644;2024-03-29T04:30:58;13.70;99.90
52769;DHT22;40471;44.534;18.644;2024-03-29T04:33:27;13.70;99.90
52769;DHT22;40471;44.534;18.644;2024-03-29T04:35:57;13.60;99.90
52769;DHT22;40471;44.534;18.644;2024-03-29T04:38:23;13.70;99.90
52769;DHT22;40471;44.534;18.644;2024-03-29T04:40:52;13.70;99.90
52769;DHT22;40471;44.534;18.644;2024-03-29T04:43:19;13.60;99.90
52769;DHT22;40471;44.534;18.644;2024-03-29T04:45:44;13.70;99.90
52769;DHT22;40471;44.534;18.644;2024-03-29T04:48:11;13.80;99.90
52769;DHT22;40471;44.534;18.644;2024-03-29T04:50:37;13.70;99.90
52769;DHT22;40471;44.534;18.644;2024-03-29T04:53:03;13.80;99.90
52769;DHT22;40471;44.534;18.644;2024-03-29T04:55:29;13.90;99.90
52769;DHT22;40471;44.534;18.644;2024-03-29T04:57:55;14.00;99.90
52769;DHT22;40471;44.534;18.644;2024-03-29T05:00:21;14.50;99.90
52769;DHT22;40471;44.534;18.644;2024-03-29T05:02:48;15.90;99.90
52769;DHT22;40471;44.534;18.644;2024-03-29T05:05:14;17.20;99.90
52769;DHT22;40471;44.534;18.644;2024-03-29T05:07:42;18.50;99.90
52769;DHT22;40471;44.534;18.644;2024-03-29T05:10:08;19.60;98.30
52769;DHT22;40471;44.534;18.644;2024-03-29T05:12:44;20.80;91.50
52769;DHT22;40471;44.534;18.644;2024-03-29T05:15:11;22.00;86.50
52769;DHT22;40471;44.534;18.644;2024-03-29T05:17:38;23.10;78.70
52769;DHT22;40471;44.534;18.644;2024-03-29T05:20:07;24.10;71.70
52769;DHT22;40471;44.534;18.644;2024-03-29T05:22:36;24.80;69.30
52769;DHT22;40471;44.534;18.644;2024-03-29T05:25:03;25.40;66.30
52769;DHT22;40471;44.534;18.644;2024-03-29T05:27:35;24.80;64.50
52769;DHT22;40471;44.534;18.644;2024-03-29T05:30:05;24.20;65.60
52769;DHT22;40471;44.534;18.644;2024-03-29T05:32:32;23.30;66.70
52769;DHT22;40471;44.534;18.644;2024-03-29T05:35:01;23.20;67.90
52769;DHT22;40471;44.534;18.644;2024-03-29T05:37:28;23.00;67.90
52769;DHT22;40471;44.534;18.644;2024-03-29T05:39:54;23.20;68.50
52769;DHT22;40471;44.534;18.644;2024-03-29T05:42:26;23.10;70.10
52769;DHT22;40471;44.534;18.644;2024-03-29T05:44:53;23.30;69.20
52769;DHT22;40471;44.534;18.644;2024-03-29T05:47:19;24.60;67.40
52769;DHT22;40471;44.534;18.644;2024-03-29T05:49:45;26.10;64.00
52769;DHT22;40471;44.534;18.644;2024-03-29T05:52:11;27.60;61.00
52769;DHT22;40471;44.534;18.644;2024-03-29T05:54:43;27.80;59.20
52769;DHT22;40471;44.534;18.644;2024-03-29T05:57:09;29.40;57.20
52769;DHT22;40471;44.534;18.644;2024-03-29T05:59:36;30.00;54.90
52769;DHT22;40471;44.534;18.644;2024-03-29T06:02:02;30.40;54.60
52769;DHT22;40471;44.534;18.644;2024-03-29T06:04:30;30.80;53.30
52769;DHT22;40471;44.534;18.644;2024-03-29T06:07:04;31.80;53.20
52769;DHT22;40471;44.534;18.644;2024-03-29T06:09:31;32.70;51.50
52769;DHT22;40471;44.534;18.644;2024-03-29T06:11:59;33.30;50.40
52769;DHT22;40471;44.534;18.644;2024-03-29T06:14:25;33.10;49.50
52769;DHT22;40471;44.534;18.644;2024-03-29T06:17:10;33.10;49.60
52769;DHT22;40471;44.534;18.644;2024-03-29T06:19:52;34.30;49.20
52769;DHT22;40471;44.534;18.644;2024-03-29T06:22:21;35.60;48.20
52769;DHT22;40471;44.534;18.644;2024-03-29T06:24:48;36.20;46.40
52769;DHT22;40471;44.534;18.644;2024-03-29T06:27:14;36.60;46.80
52769;DHT22;40471;44.534;18.644;2024-03-29T06:29:46;36.60;46.70
52769;DHT22;40471;44.534;18.644;2024-03-29T06:32:12;36.50;46.40
52769;DHT22;40471;44.534;18.644;2024-03-29T06:34:39;36.60;46.30
52769;DHT22;40471;44.534;18.644;2024-03-29T06:37:05;36.80;45.80
52769;DHT22;40471;44.534;18.644;2024-03-29T06:39:31;37.30;45.40
52769;DHT22;40471;44.534;18.644;2024-03-29T06:41:58;37.50;44.90
52769;DHT22;40471;44.534;18.644;2024-03-29T06:44:24;37.90;44.30
52769;DHT22;40471;44.534;18.644;2024-03-29T06:46:50;37.70;44.50
52769;DHT22;40471;44.534;18.644;2024-03-29T06:49:16;38.70;44.10
52769;DHT22;40471;44.534;18.644;2024-03-29T06:51:45;39.10;43.60
52769;DHT22;40471;44.534;18.644;2024-03-29T06:54:11;39.40;43.60
52769;DHT22;40471;44.534;18.644;2024-03-29T06:56:37;39.70;42.90
52769;DHT22;40471;44.534;18.644;2024-03-29T06:59:03;39.70;43.10
52769;DHT22;40471;44.534;18.644;2024-03-29T07:01:30;39.90;42.80
52769;DHT22;40471;44.534;18.644;2024-03-29T07:03:56;40.40;42.70
52769;DHT22;40471;44.534;18.644;2024-03-29T07:06:22;40.90;42.70
52769;DHT22;40471;44.534;18.644;2024-03-29T07:08:48;41.30;42.20
52769;DHT22;40471;44.534;18.644;2024-03-29T07:11:14;41.70;41.90
52769;DHT22;40471;44.534;18.644;2024-03-29T07:13:40;42.00;41.70
52769;DHT22;40471;44.534;18.644;2024-03-29T07:16:06;42.40;41.40
52769;DHT22;40471;44.534;18.644;2024-03-29T07:18:37;42.20;40.80
52769;DHT22;40471;44.534;18.644;2024-03-29T07:21:06;42.80;40.80
52769;DHT22;40471;44.534;18.644;2024-03-29T07:23:32;42.70;40.60
52769;DHT22;40471;44.534;18.644;2024-03-29T07:26:00;41.90;40.90
52769;DHT22;40471;44.534;18.644;2024-03-29T07:28:27;40.90;40.00
52769;DHT22;40471;44.534;18.644;2024-03-29T07:31:06;40.30;41.10
52769;DHT22;40471;44.534;18.644;2024-03-29T07:33:33;40.30;41.00
52769;DHT22;40471;44.534;18.644;2024-03-29T07:35:59;40.50;41.50
52769;DHT22;40471;44.534;18.644;2024-03-29T07:38:24;41.00;41.00
52769;DHT22;40471;44.534;18.644;2024-03-29T07:40:51;41.50;40.90
52769;DHT22;40471;44.534;18.644;2024-03-29T07:43:18;41.90;41.00
52769;DHT22;40471;44.534;18.644;2024-03-29T07:45:47;42.30;40.20
52769;DHT22;40471;44.534;18.644;2024-03-29T07:48:17;41.80;40.30
52769;DHT22;40471;44.534;18.644;2024-03-29T07:50:45;41.30;40.60
52769;DHT22;40471;44.534;18.644;2024-03-29T07:53:11;41.70;40.90
52769;DHT22;40471;44.534;18.644;2024-03-29T07:55:38;41.80;40.80
52769;DHT22;40471;44.534;18.644;2024-03-29T07:58:05;41.70;40.70
52769;DHT22;40471;44.534;18.644;2024-03-29T08:00:34;41.70;39.80
52769;DHT22;40471;44.534;18.644;2024-03-29T08:03:00;41.40;40.20
52769;DHT22;40471;44.534;18.644;2024-03-29T08:05:29;41.70;40.10
52769;DHT22;40471;44.534;18.644;2024-03-29T08:07:56;40.50;39.80
52769;DHT22;40471;44.534;18.644;2024-03-29T08:10:22;40.20;40.50
52769;DHT22;40471;44.534;18.644;2024-03-29T08:12:48;40.00;41.30
52769;DHT22;40471;44.534;18.644;2024-03-29T08:15:14;39.90;40.50
52769;DHT22;40471;44.534;18.644;2024-03-29T08:17:55;39.50;40.90
52769;DHT22;40471;44.534;18.644;2024-03-29T08:20:31;38.30;40.60
52769;DHT22;40471;44.534;18.644;2024-03-29T08:23:02;37.00;41.70
52769;DHT22;40471;44.534;18.644;2024-03-29T08:25:28;36.80;42.00
52769;DHT22;40471;44.534;18.644;2024-03-29T08:27:54;36.70;42.50
52769;DHT22;40471;44.534;18.644;2024-03-29T08:30:27;36.50;42.70
52769;DHT22;40471;44.534;18.644;2024-03-29T08:33:03;36.60;42.50
52769;DHT22;40471;44.534;18.644;2024-03-29T08:35:34;36.30;42.60
52769;DHT22;40471;44.534;18.644;2024-03-29T08:38:00;36.40;42.30
52769;DHT22;40471;44.534;18.644;2024-03-29T08:40:28;36.60;42.70
52769;DHT22;40471;44.534;18.644;2024-03-29T08:42:58;36.70;42.10
52769;DHT22;40471;44.534;18.644;2024-03-29T08:45:24;36.90;41.40
52769;DHT22;40471;44.534;18.644;2024-03-29T08:48:28;36.50;42.40
52769;DHT22;40471;44.534;18.644;2024-03-29T08:51:23;36.40;41.30
52769;DHT22;40471;44.534;18.644;2024-03-29T08:54:31;36.10;41.00
52769;DHT22;40471;44.534;18.644;2024-03-29T08:57:29;36.10;41.80
52769;DHT22;40471;44.534;18.644;2024-03-29T09:00:33;35.60;41.50
52769;DHT22;40471;44.534;18.644;2024-03-29T09:03:23;35.00;42.40
52769;DHT22;40471;44.534;18.644;2024-03-29T09:06:37;34.40;42.70
52769;DHT22;40471;44.534;18.644;2024-03-29T09:09:40;33.80;43.10
52769;DHT22;40471;44.534;18.644;2024-03-29T09:12:11;33.00;44.80
52769;DHT22;40471;44.534;18.644;2024-03-29T09:14:53;32.50;43.90
52769;DHT22;40471;44.534;18.644;2024-03-29T09:17:56;32.60;43.70
52769;DHT22;40471;44.534;18.644;2024-03-29T09:20:43;33.50;42.60
52769;DHT22;40471;44.534;18.644;2024-03-29T09:23:14;34.10;43.90
52769;DHT22;40471;44.534;18.644;2024-03-29T09:25:47;34.50;43.10
52769;DHT22;40471;44.534;18.644;2024-03-29T09:28:24;34.70;42.80
52769;DHT22;40471;44.534;18.644;2024-03-29T09:31:03;34.70;43.10
52769;DHT22;40471;44.534;18.644;2024-03-29T09:33:37;33.90;42.50
52769;DHT22;40471;44.534;18.644;2024-03-29T09:36:07;32.70;43.00
52769;DHT22;40471;44.534;18.644;2024-03-29T09:38:43;31.60;43.80
52769;DHT22;40471;44.534;18.644;2024-03-29T09:41:16;30.70;45.10
52769;DHT22;40471;44.534;18.644;2024-03-29T09:43:44;30.40;45.80
52769;DHT22;40471;44.534;18.644;2024-03-29T09:46:14;30.30;45.40
52769;DHT22;40471;44.534;18.644;2024-03-29T09:48:42;30.40;45.80
52769;DHT22;40471;44.534;18.644;2024-03-29T09:51:17;30.30;46.20
52769;DHT22;40471;44.534;18.644;2024-03-29T09:53:43;30.30;46.30
52769;DHT22;40471;44.534;18.644;2024-03-29T09:56:12;30.20;46.90
52769;DHT22;40471;44.534;18.644;2024-03-29T09:58:44;29.90;46.10
52769;DHT22;40471;44.534;18.644;2024-03-29T10:01:20;29.80;46.60
52769;DHT22;40471;44.534;18.644;2024-03-29T10:03:53;29.80;46.20
52769;DHT22;40471;44.534;18.644;2024-03-29T10:06:19;29.60;46.10
52769;DHT22;40471;44.534;18.644;2024-03-29T10:08:47;29.40;47.30
52769;DHT22;40471;44.534;18.644;2024-03-29T10:11:14;29.40;48.10
52769;DHT22;40471;44.534;18.644;2024-03-29T10:13:45;29.30;47.30
52769;DHT22;40471;44.534;18.644;2024-03-29T10:16:11;29.30;46.80
52769;DHT22;40471;44.534;18.644;2024-03-29T10:18:40;29.10;47.60
52769;DHT22;40471;44.534;18.644;2024-03-29T10:21:10;29.10;48.00
52769;DHT22;40471;44.534;18.644;2024-03-29T10:23:40;29.00;47.80
52769;DHT22;40471;44.534;18.644;2024-03-29T10:26:08;28.70;48.40
52769;DHT22;40471;44.534;18.644;2024-03-29T10:28:35;28.50;49.00
52769;DHT22;40471;44.534;18.644;2024-03-29T10:31:02;28.30;49.10
52769;DHT22;40471;44.534;18.644;2024-03-29T10:33:32;28.10;49.80
52769;DHT22;40471;44.534;18.644;2024-03-29T10:35:59;27.90;49.70
52769;DHT22;40471;44.534;18.644;2024-03-29T10:38:26;27.80;50.10
52769;DHT22;40471;44.534;18.644;2024-03-29T10:40:53;27.80;49.80
52769;DHT22;40471;44.534;18.644;2024-03-29T10:43:22;27.70;49.20
52769;DHT22;40471;44.534;18.644;2024-03-29T10:45:55;27.60;49.60
52769;DHT22;40471;44.534;18.644;2024-03-29T10:48:32;27.80;49.00
52769;DHT22;40471;44.534;18.644;2024-03-29T10:51:02;28.00;49.80
52769;DHT22;40471;44.534;18.644;2024-03-29T10:53:37;28.70;49.40
52769;DHT22;40471;44.534;18.644;2024-03-29T10:56:07;29.30;49.00
52769;DHT22;40471;44.534;18.644;2024-03-29T10:58:38;30.30;48.20
52769;DHT22;40471;44.534;18.644;2024-03-29T11:01:07;30.80;46.10
52769;DHT22;40471;44.534;18.644;2024-03-29T11:03:45;30.20;46.60
52769;DHT22;40471;44.534;18.644;2024-03-29T11:06:20;29.90;47.70
52769;DHT22;40471;44.534;18.644;2024-03-29T11:08:52;29.40;47.10
52769;DHT22;40471;44.534;18.644;2024-03-29T11:11:22;29.00;47.60
52769;DHT22;40471;44.534;18.644;2024-03-29T11:14:03;28.80;48.10
52769;DHT22;40471;44.534;18.644;2024-03-29T11:16:29;28.90;48.70
52769;DHT22;40471;44.534;18.644;2024-03-29T11:19:07;28.60;48.20
52769;DHT22;40471;44.534;18.644;2024-03-29T11:21:33;28.40;48.90
52769;DHT22;40471;44.534;18.644;2024-03-29T11:24:04;28.40;47.60
52769;DHT22;40471;44.534;18.644;2024-03-29T11:26:29;28.60;48.30
52769;DHT22;40471;44.534;18.644;2024-03-29T11:28:55;28.70;48.70
52769;DHT22;40471;44.534;18.644;2024-03-29T11:31:25;29.10;48.20
52769;DHT22;40471;44.534;18.644;2024-03-29T11:33:57;29.20;47.70
52769;DHT22;40471;44.534;18.644;2024-03-29T11:36:25;29.10;47.20
52769;DHT22;40471;44.534;18.644;2024-03-29T11:38:55;28.80;47.20
52769;DHT22;40471;44.534;18.644;2024-03-29T11:45:29;29.40;46.80
52769;DHT22;40471;44.534;18.644;2024-03-29T11:48:25;29.70;46.60
52769;DHT22;40471;44.534;18.644;2024-03-29T11:50:54;29.70;47.10
52769;DHT22;40471;44.534;18.644;2024-03-29T11:53:25;29.30;47.20
52769;DHT22;40471;44.534;18.644;2024-03-29T11:56:00;28.90;47.50
52769;DHT22;40471;44.534;18.644;2024-03-29T11:58:28;28.40;48.40
52769;DHT22;40471;44.534;18.644;2024-03-29T12:00:54;28.30;48.50
52769;DHT22;40471;44.534;18.644;2024-03-29T12:03:21;28.20;48.70
52769;DHT22;40471;44.534;18.644;2024-03-29T12:05:51;28.10;48.40
52769;DHT22;40471;44.534;18.644;2024-03-29T12:08:23;28.20;48.50
52769;DHT22;40471;44.534;18.644;2024-03-29T12:10:53;27.90;48.30
52769;DHT22;40471;44.534;18.644;2024-03-29T12:13:24;27.70;49.40
52769;DHT22;40471;44.534;18.644;2024-03-29T12:15:57;27.60;49.20
52769;DHT22;40471;44.534;18.644;2024-03-29T12:21:44;27.30;49.40
52769;DHT22;40471;44.534;18.644;2024-03-29T12:24:13;27.30;50.10
52769;DHT22;40471;44.534;18.644;2024-03-29T12:26:41;27.40;50.40
52769;DHT22;40471;44.534;18.644;2024-03-29T12:29:07;27.40;50.10
52769;DHT22;40471;44.534;18.644;2024-03-29T12:31:33;27.50;49.70
52769;DHT22;40471;44.534;18.644;2024-03-29T12:33:59;27.50;49.50
52769;DHT22;40471;44.534;18.644;2024-03-29T12:36:25;27.60;49.80
52769;DHT22;40471;44.534;18.644;2024-03-29T12:38:54;27.70;49.90
52769;DHT22;40471;44.534;18.644;2024-03-29T12:41:24;28.00;50.20
52769;DHT22;40471;44.534;18.644;2024-03-29T12:43:51;27.90;49.20
52769;DHT22;40471;44.534;18.644;2024-03-29T12:46:18;27.90;49.20
52769;DHT22;40471;44.534;18.644;2024-03-29T12:48:44;27.80;48.70
52769;DHT22;40471;44.534;18.644;2024-03-29T12:51:10;27.90;48.90
52769;DHT22;40471;44.534;18.644;2024-03-29T12:53:39;28.10;48.90
52769;DHT22;40471;44.534;18.644;2024-03-29T12:56:06;28.20;48.70
52769;DHT22;40471;44.534;18.644;2024-03-29T12:58:32;28.30;48.00
52769;DHT22;40471;44.534;18.644;2024-03-29T13:00:58;28.40;48.60
52769;DHT22;40471;44.534;18.644;2024-03-29T13:03:23;28.70;48.90
52769;DHT22;40471;44.534;18.644;2024-03-29T13:05:49;29.20;48.50
52769;DHT22;40471;44.534;18.644;2024-03-29T13:08:17;29.60;48.30
52769;DHT22;40471;44.534;18.644;2024-03-29T13:10:44;29.70;48.20
52769;DHT22;40471;44.534;18.644;2024-03-29T13:13:15;29.80;48.50
52769;DHT22;40471;44.534;18.644;2024-03-29T13:15:47;29.70;47.30
52769;DHT22;40471;44.534;18.644;2024-03-29T13:18:17;29.50;48.00
52769;DHT22;40471;44.534;18.644;2024-03-29T13:20:44;29.50;47.90
52769;DHT22;40471;44.534;18.644;2024-03-29T13:23:26;29.40;48.40
52769;DHT22;40471;44.534;18.644;2024-03-29T13:25:54;29.40;48.60
52769;DHT22;40471;44.534;18.644;2024-03-29T13:28:27;29.40;48.10
52769;DHT22;40471;44.534;18.644;2024-03-29T13:30:53;29.40;47.90
52769;DHT22;40471;44.534;18.644;2024-03-29T13:33:21;29.20;48.20
52769;DHT22;40471;44.534;18.644;2024-03-29T13:35:47;29.10;48.20
52769;DHT22;40471;44.534;18.644;2024-03-29T13:38:13;29.00;47.00
52769;DHT22;40471;44.534;18.644;2024-03-29T13:40:39;28.80;47.40
52769;DHT22;40471;44.534;18.644;2024-03-29T13:43:05;28.70;47.80
52769;DHT22;40471;44.534;18.644;2024-03-29T13:45:32;28.70;47.90
52769;DHT22;40471;44.534;18.644;2024-03-29T13:47:58;28.80;47.70
52769;DHT22;40471;44.534;18.644;2024-03-29T13:50:24;28.80;47.70
52769;DHT22;40471;44.534;18.644;2024-03-29T13:52:50;28.70;48.00
52769;DHT22;40471;44.534;18.644;2024-03-29T13:55:17;28.80;47.90
52769;DHT22;40471;44.534;18.644;2024-03-29T13:57:43;28.60;47.90
52769;DHT22;40471;44.534;18.644;2024-03-29T14:00:10;28.60;48.60
52769;DHT22;40471;44.534;18.644;2024-03-29T14:02:40;28.60;48.30
52769;DHT22;40471;44.534;18.644;2024-03-29T14:05:06;28.60;48.40
52769;DHT22;40471;44.534;18.644;2024-03-29T14:07:35;28.40;48.40
52769;DHT22;40471;44.534;18.644;2024-03-29T14:10:05;28.10;48.10
52769;DHT22;40471;44.534;18.644;2024-03-29T14:12:32;27.90;49.00
52769;DHT22;40471;44.534;18.644;2024-03-29T14:14:58;27.60;49.40
52769;DHT22;40471;44.534;18.644;2024-03-29T14:17:26;27.40;49.20
52769;DHT22;40471;44.534;18.644;2024-03-29T14:19:53;27.30;49.90
52769;DHT22;40471;44.534;18.644;2024-03-29T14:22:19;27.20;49.90
52769;DHT22;40471;44.534;18.644;2024-03-29T14:24:46;27.00;50.40
52769;DHT22;40471;44.534;18.644;2024-03-29T14:27:12;26.70;50.60
52769;DHT22;40471;44.534;18.644;2024-03-29T14:29:41;26.60;50.90
52769;DHT22;40471;44.534;18.644;2024-03-29T14:32:10;26.50;51.00
52769;DHT22;40471;44.534;18.644;2024-03-29T14:34:36;26.40;50.80
52769;DHT22;40471;44.534;18.644;2024-03-29T14:37:10;26.40;51.40
52769;DHT22;40471;44.534;18.644;2024-03-29T14:39:39;26.50;51.90
52769;DHT22;40471;44.534;18.644;2024-03-29T14:42:08;26.50;51.10
52769;DHT22;40471;44.534;18.644;2024-03-29T14:44:39;26.60;50.80
52769;DHT22;40471;44.534;18.644;2024-03-29T14:47:05;26.50;50.30
52769;DHT22;40471;44.534;18.644;2024-03-29T14:49:31;26.30;50.10
52769;DHT22;40471;44.534;18.644;2024-03-29T14:51:58;26.30;50.60
52769;DHT22;40471;44.534;18.644;2024-03-29T14:54:25;26.10;50.00
52769;DHT22;40471;44.534;18.644;2024-03-29T14:56:51;26.00;51.10
52769;DHT22;40471;44.534;18.644;2024-03-29T14:59:17;25.70;50.80
52769;DHT22;40471;44.534;18.644;2024-03-29T15:01:45;25.70;51.70
52769;DHT22;40471;44.534;18.644;2024-03-29T15:04:11;25.60;50.90
52769;DHT22;40471;44.534;18.644;2024-03-29T15:06:37;25.40;51.20
52769;DHT22;40471;44.534;18.644;2024-03-29T15:09:08;25.30;51.20
52769;DHT22;40471;44.534;18.644;2024-03-29T15:11:34;25.30;51.40
52769;DHT22;40471;44.534;18.644;2024-03-29T15:14:00;25.20;50.50
52769;DHT22;40471;44.534;18.644;2024-03-29T15:16:26;25.20;50.40
52769;DHT22;40471;44.534;18.644;2024-03-29T15:18:57;25.10;50.70
52769;DHT22;40471;44.534;18.644;2024-03-29T15:21:24;25.00;51.10
52769;DHT22;40471;44.534;18.644;2024-03-29T15:23:50;25.10;52.50
52769;DHT22;40471;44.534;18.644;2024-03-29T15:26:16;25.10;52.30
52769;DHT22;40471;44.534;18.644;2024-03-29T15:28:42;25.10;52.20
52769;DHT22;40471;44.534;18.644;2024-03-29T15:31:26;25.10;51.50
52769;DHT22;40471;44.534;18.644;2024-03-29T15:33:55;25.10;52.10